Time;durP1;ratioP1;P1;durP2;ratioP2;P2;SDS_P1;SDS_P2;PMS_P1;PMS_P2;Temp;Humidity;BMP_temperature;BMP_pressure;BME280_temperature;BME280_humidity;BME280_pressure;Samples;Min_cycle;Max_cycle;Signal;HPM_P1;HPM_P2
2022/11/26 00:05:01;;;;;;;12.77;6.33;;;;;;;8.44;100.00;100218.50;31584418;28;20078;-71
2022/11/26 00:20:04;;;;;;;18.50;7.67;;;;;;;8.36;100.00;100228.63;31630917;28;20048;-71
2022/11/26 00:35:06;;;;;;;12.57;7.27;;;;;;;8.34;100.00;100247.19;31604326;28;20463;-70
2022/11/26 00:50:12;;;;;;;12.73;6.77;;;;;;;8.34;100.00;100247.19;31614898;28;20041;-74
2022/11/26 01:05:15;;;;;;;14.93;8.00;;;;;;;8.35;100.00;100248.72;31573475;28;20107;-70
2022/11/26 01:20:28;;;;;;;16.30;7.33;;;;;;;8.39;100.00;100241.34;31573941;28;20055;-70
2022/11/26 01:35:30;;;;;;;14.73;7.50;;;;;;;8.24;100.00;100247.25;31584525;28;20083;-70
2022/11/26 01:50:35;;;;;;;16.50;7.80;;;;;;;8.25;100.00;100249.56;31602421;28;20048;-70
2022/11/26 02:05:45;;;;;;;17.40;7.93;;;;;;;8.18;100.00;100261.19;31562446;28;20102;-71
2022/11/26 02:21:24;;;;;;;12.63;7.07;;;;;;;8.19;100.00;100262.72;31582066;28;20052;-70
2022/11/26 02:36:46;;;;;;;15.70;7.93;;;;;;;8.13;100.00;100277.06;31567130;28;20041;-69
2022/11/26 02:51:53;;;;;;;17.03;6.67;;;;;;;8.11;100.00;100292.91;31576660;28;20044;-72
2022/11/26 03:07:01;;;;;;;17.03;8.27;;;;;;;8.09;100.00;100298.72;31582785;28;20512;-69
2022/11/26 03:22:03;;;;;;;17.30;7.43;;;;;;;8.01;100.00;100318.09;31564329;28;20158;-69
2022/11/26 03:37:05;;;;;;;16.87;7.07;;;;;;;7.90;100.00;100341.69;31564358;28;20115;-70
2022/11/26 03:52:07;;;;;;;16.23;7.37;;;;;;;8.07;100.00;100365.16;31583704;28;20059;-70
2022/11/26 04:07:09;;;;;;;16.53;8.07;;;;;;;7.98;100.00;100367.53;31580911;28;20076;-70
2022/11/26 04:22:11;;;;;;;23.70;8.27;;;;;;;7.95;100.00;100392.66;31567234;28;20101;-70
2022/11/26 04:37:13;;;;;;;17.10;8.07;;;;;;;7.82;100.00;100412.00;31575280;28;20044;-70
2022/11/26 04:52:15;;;;;;;21.63;8.97;;;;;;;7.87;100.00;100425.13;31578128;28;20075;-71
2022/11/26 05:07:17;;;;;;;27.40;11.07;;;;;;;8.10;100.00;100432.75;31598267;28;20048;-71
2022/11/26 05:22:19;;;;;;;21.27;8.77;;;;;;;8.17;99.59;100448.19;31596316;28;20160;-70
2022/11/26 05:37:21;;;;;;;18.17;8.27;;;;;;;8.15;98.68;100458.63;31599883;28;20052;-70
2022/11/26 05:52:23;;;;;;;17.47;7.97;;;;;;;8.13;98.63;100463.66;31588732;28;20090;-71
2022/11/26 06:07:25;;;;;;;18.10;8.07;;;;;;;8.08;97.04;100483.75;31564776;28;20156;-71
2022/11/26 06:22:27;;;;;;;18.67;8.93;;;;;;;8.25;96.62;100492.97;31605044;28;20044;-70
2022/11/26 06:37:30;;;;;;;13.10;6.67;;;;;;;8.19;96.72;100513.47;31593403;28;20053;-73
2022/11/26 06:52:32;;;;;;;17.27;7.63;;;;;;;8.23;96.83;100530.44;31579542;28;20051;-71
2022/11/26 07:07:38;;;;;;;17.07;6.23;;;;;;;8.37;95.75;100543.94;31556803;28;20049;-70
2022/11/26 07:22:40;;;;;;;13.25;6.28;;;;;;;8.31;95.07;100544.72;31585652;28;20062;-69
2022/11/26 07:37:42;;;;;;;13.43;6.37;;;;;;;8.39;94.47;100557.84;31584788;28;20052;-69
2022/11/26 07:52:44;;;;;;;12.97;5.03;;;;;;;8.33;95.43;100564.81;31596475;28;20071;-69
2022/11/26 08:07:46;;;;;;;9.43;4.27;;;;;;;8.05;94.94;100549.41;31553607;28;20458;-75
2022/11/26 08:22:48;;;;;;;9.37;4.83;;;;;;;8.12;95.35;100568.34;31579609;28;20048;-73
2022/11/26 08:37:50;;;;;;;9.67;4.37;;;;;;;8.29;94.42;100569.44;31563659;28;20056;-76
2022/11/26 08:52:51;;;;;;;8.97;4.23;;;;;;;8.31;93.57;100572.53;31558615;28;20110;-74
2022/11/26 09:07:53;;;;;;;6.23;3.33;;;;;;;8.40;92.75;100581.03;31560694;28;20493;-75
2022/11/26 09:22:55;;;;;;;19.60;9.53;;;;;;;8.40;93.57;100574.84;31568319;28;20052;-75
2022/11/26 09:37:58;;;;;;;9.43;5.03;;;;;;;8.39;92.79;100601.13;31564953;28;20101;-74
2022/11/26 09:53:15;;;;;;;9.90;5.03;;;;;;;8.47;93.08;100602.66;31571523;28;20508;-74
2022/11/26 10:08:25;;;;;;;13.80;6.83;;;;;;;8.31;93.42;100609.63;31541527;28;20050;-77
2022/11/26 10:23:36;;;;;;;12.83;6.70;;;;;;;8.25;94.46;100611.22;31590887;28;20079;-75
2022/11/26 10:38:38;;;;;;;17.67;7.07;;;;;;;8.38;94.66;100632.06;31575430;28;20055;-75
2022/11/26 10:54:01;;;;;;;68.97;36.50;;;;;;;8.47;93.40;100629.72;31596056;28;20075;-76
2022/11/26 11:09:29;;;;;;;14.97;6.83;;;;;;;8.41;92.74;100641.34;31572136;28;20105;-77
2022/11/26 11:24:31;;;;;;;20.60;9.03;;;;;;;8.39;93.01;100657.94;31576695;28;20459;-80
2022/11/26 11:39:34;;;;;;;21.43;8.63;;;;;;;8.32;92.67;100649.84;31559094;28;20044;-75
2022/11/26 11:54:58;;;;;;;20.90;9.07;;;;;;;8.45;92.09;100661.81;31618703;28;20048;-75
2022/11/26 12:10:15;;;;;;;21.33;8.57;;;;;;;8.33;92.83;100669.56;31575807;28;20082;-76
2022/11/26 12:25:27;;;;;;;22.53;9.63;;;;;;;8.38;92.60;100674.56;31573739;28;20087;-75
2022/11/26 12:40:48;;;;;;;35.83;15.90;;;;;;;8.31;92.57;100680.72;31601930;28;20459;-75
2022/11/26 12:55:59;;;;;;;23.53;10.63;;;;;;;8.25;93.73;100698.53;31583590;28;20078;-74
2022/11/26 13:11:20;;;;;;;23.60;10.00;;;;;;;8.24;94.08;100707.03;31584635;28;20048;-75
2022/11/26 13:27:00;;;;;;;28.97;11.93;;;;;;;8.22;94.82;100715.53;31596022;28;20060;-74
2022/11/26 13:42:08;;;;;;;86.97;29.00;;;;;;;8.20;95.57;100715.13;31615300;28;20060;-74
2022/11/26 13:57:24;;;;;;;25.63;11.53;;;;;;;8.19;94.50;100727.13;31615419;28;20109;-74
2022/11/26 14:13:02;;;;;;;25.60;12.87;;;;;;;8.15;94.99;100739.84;31561194;28;20071;-78
2022/11/26 14:28:08;;;;;;;22.87;9.93;;;;;;;8.04;96.94;100747.19;31573193;28;20098;-76
2022/11/26 14:43:18;;;;;;;18.83;10.93;;;;;;;7.92;98.00;100753.75;31583076;28;20043;-74
2022/11/26 14:58:35;;;;;;;39.40;16.90;;;;;;;7.66;99.19;100771.06;31564864;28;20059;-74
2022/11/26 15:13:41;;;;;;;20.67;8.80;;;;;;;7.59;99.91;100776.44;31575917;28;20052;-76
2022/11/26 15:28:44;;;;;;;26.73;10.77;;;;;;;7.61;100.00;100771.44;31584071;28;20058;-75
2022/11/26 15:43:49;;;;;;;20.57;9.67;;;;;;;7.58;100.00;100777.59;31601974;28;20051;-75
2022/11/26 15:59:01;;;;;;;20.30;10.63;;;;;;;7.63;99.85;100798.06;31530922;28;20036;-75
2022/11/26 16:14:35;;;;;;;24.53;9.83;;;;;;;7.62;100.00;100802.69;31568440;28;20051;-76
2022/11/26 16:29:38;;;;;;;24.67;10.10;;;;;;;7.55;99.83;100791.88;31590647;28;20054;-77
2022/11/26 16:44:39;;;;;;;37.43;14.83;;;;;;;7.56;100.00;100793.41;31572566;28;20079;-76
2022/11/26 16:59:45;;;;;;;34.50;11.90;;;;;;;7.62;99.87;100812.72;31606023;28;20058;-78
2022/11/26 17:14:49;;;;;;;26.13;9.97;;;;;;;7.62;99.33;100815.44;31613445;28;20051;-78
2022/11/26 17:29:54;;;;;;;;;;;;;;;7.60;98.82;100815.81;31618757;28;20127;-76
2022/11/26 17:44:55;;;;;;;25.30;11.10;;;;;;;7.60;100.00;100821.22;31613235;28;19927;-75
2022/11/26 17:59:57;;;;;;;39.73;12.73;;;;;;;7.62;99.88;100829.72;31595763;28;20044;-76
2022/11/26 18:15:00;;;;;;;20.63;10.20;;;;;;;7.39;99.53;100837.34;31608533;28;20047;-76
2022/11/26 18:30:03;;;;;;;21.20;8.43;;;;;;;7.44;100.00;100850.50;31595942;28;20044;-77
2022/11/26 18:45:08;;;;;;;22.50;8.50;;;;;;;7.42;100.00;100858.19;31586109;28;20473;-78
2022/11/26 19:00:11;;;;;;;19.77;8.13;;;;;;;7.30;100.00;100861.22;31565424;28;20397;-77
2022/11/26 19:15:12;;;;;;;18.30;7.30;;;;;;;7.31;100.00;100863.56;31584438;28;20122;-75
2022/11/26 19:30:15;;;;;;;23.43;9.63;;;;;;;7.27;100.00;100880.88;31576452;28;20048;-77
2022/11/26 19:45:17;;;;;;;23.97;10.60;;;;;;;7.13;100.00;100890.44;31575460;28;20558;-75
2022/11/26 20:00:19;;;;;;;24.57;10.13;;;;;;;7.02;100.00;100900.38;31594643;28;20052;-74
2022/11/26 20:15:21;;;;;;;31.40;11.33;;;;;;;7.00;100.00;100899.97;31583300;28;20052;-75
2022/11/26 20:30:24;;;;;;;21.13;9.80;;;;;;;7.03;100.00;100911.97;31580577;28;20052;-75
2022/11/26 20:45:27;;;;;;;24.93;9.47;;;;;;;6.50;100.00;100923.84;31577313;28;20536;-75
2022/11/26 21:00:28;;;;;;;27.30;10.23;;;;;;;6.57;100.00;100935.84;31542454;28;20052;-74
2022/11/26 21:15:30;;;;;;;49.43;20.87;;;;;;;6.51;100.00;100940.78;31558206;28;20080;-74
2022/11/26 21:30:33;;;;;;;52.60;20.73;;;;;;;6.51;100.00;100940.78;31564951;28;20052;-75
2022/11/26 21:45:35;;;;;;;39.27;13.43;;;;;;;6.53;100.00;100933.09;31580902;28;20052;-74
2022/11/26 22:00:38;;;;;;;40.77;14.23;;;;;;;6.36;100.00;100934.47;31585642;28;20959;-74
2022/11/26 22:15:41;;;;;;;46.87;14.07;;;;;;;6.30;100.00;100938.66;31580869;28;20052;-75
2022/11/26 22:30:43;;;;;;;39.73;13.53;;;;;;;6.27;100.00;100936.69;31582492;28;20052;-74
2022/11/26 22:45:45;;;;;;;29.83;11.30;;;;;;;6.27;100.00;100931.28;31556684;28;20062;-74
2022/11/26 23:00:58;;;;;;;32.13;11.77;;;;;;;6.29;100.00;100939.78;31578203;28;20394;-73
2022/11/26 23:15:59;;;;;;;29.60;10.63;;;;;;;6.27;100.00;100946.69;31579889;28;20079;-72
2022/11/26 23:31:12;;;;;;;17.47;8.73;;;;;;;6.19;100.00;100953.13;31590190;28;20466;-73
2022/11/26 23:46:23;;;;;;;26.40;9.83;;;;;;;5.97;100.00;100965.59;31583904;28;20460;-73
